createdAt,value
2023-05-03T00:00:22.705Z,81.70
2023-05-03T00:02:53.988Z,81.60
2023-05-03T00:05:22.062Z,81.70
2023-05-03T00:07:50.273Z,81.70
2023-05-03T00:10:18.214Z,81.60
2023-05-03T00:12:46.193Z,81.50
2023-05-03T00:15:14.103Z,81.60
2023-05-03T00:17:42.001Z,81.70
2023-05-03T00:20:12.689Z,81.80
2023-05-03T00:22:40.635Z,81.90
2023-05-03T00:25:09.872Z,81.90
2023-05-03T00:27:38.287Z,82.00
2023-05-03T00:30:07.241Z,82.00
2023-05-03T00:32:35.156Z,82.20
2023-05-03T00:35:03.419Z,82.30
2023-05-03T00:37:32.705Z,82.30
2023-05-03T00:40:00.901Z,82.40
2023-05-03T00:42:28.916Z,82.50
2023-05-03T00:44:56.781Z,82.40
2023-05-03T00:47:24.828Z,82.60
2023-05-03T00:49:52.874Z,82.50
2023-05-03T00:52:20.896Z,82.70
2023-05-03T00:54:50.326Z,82.80
2023-05-03T00:57:18.288Z,82.80
2023-05-03T00:59:46.356Z,82.90
2023-05-03T01:02:14.256Z,82.90
2023-05-03T01:04:43.344Z,82.90
2023-05-03T01:07:21.775Z,83.30
2023-05-03T01:10:01.001Z,83.40
2023-05-03T01:12:39.699Z,83.70
2023-05-03T01:15:13.372Z,83.70
2023-05-03T01:17:51.033Z,83.90
2023-05-03T01:20:24.791Z,83.70
2023-05-03T01:23:02.812Z,83.70
2023-05-03T01:25:32.619Z,83.80
2023-05-03T01:28:01.419Z,83.80
2023-05-03T01:30:31.816Z,83.70
2023-05-03T01:33:05.852Z,84.00
2023-05-03T01:35:41.602Z,84.10
2023-05-03T01:38:10.099Z,84.10
2023-05-03T01:40:44.190Z,83.90
2023-05-03T01:43:14.339Z,84.00
2023-05-03T01:45:43.026Z,83.90
2023-05-03T01:48:12.397Z,83.80
2023-05-03T01:50:40.357Z,84.00
2023-05-03T01:53:08.300Z,83.90
2023-05-03T01:55:36.177Z,83.90
2023-05-03T01:58:06.114Z,83.90
2023-05-03T02:00:33.990Z,84.00
2023-05-03T02:03:01.905Z,84.30
2023-05-03T02:05:29.866Z,84.00
2023-05-03T02:07:57.790Z,84.00
2023-05-03T02:10:25.639Z,83.70
2023-05-03T02:12:53.524Z,83.80
2023-05-03T02:15:22.788Z,83.90
2023-05-03T02:17:50.877Z,84.10
2023-05-03T02:20:19.231Z,84.10
2023-05-03T02:22:47.135Z,84.20
2023-05-03T02:25:15.092Z,84.50
2023-05-03T02:27:42.985Z,84.60
2023-05-03T02:30:11.513Z,84.30
2023-05-03T02:32:40.830Z,84.10
2023-05-03T02:35:09.681Z,84.30
2023-05-03T02:37:37.672Z,84.10
2023-05-03T02:40:07.121Z,84.00
2023-05-03T02:42:35.016Z,84.10
2023-05-03T02:45:03.260Z,84.20
2023-05-03T02:47:32.286Z,84.00
2023-05-03T02:50:01.886Z,84.20
2023-05-03T02:52:30.122Z,84.40
2023-05-03T02:54:58.179Z,84.60
2023-05-03T02:57:26.040Z,84.40
2023-05-03T02:59:53.956Z,84.30
2023-05-03T03:02:22.077Z,84.40
2023-05-03T03:04:50.024Z,84.30
2023-05-03T03:07:19.301Z,84.50
2023-05-03T03:09:47.256Z,84.50
2023-05-03T03:12:15.236Z,84.60
2023-05-03T03:14:45.601Z,85.20
2023-05-03T03:17:13.572Z,85.00
2023-05-03T03:19:41.523Z,85.00
2023-05-03T03:22:09.501Z,84.90
2023-05-03T03:24:39.565Z,84.90
2023-05-03T03:27:07.484Z,84.80
2023-05-03T03:29:36.271Z,85.00
2023-05-03T03:32:04.317Z,85.10
2023-05-03T03:34:32.989Z,85.10
2023-05-03T03:37:00.986Z,85.20
2023-05-03T03:39:28.886Z,85.00
2023-05-03T03:41:58.174Z,85.20
2023-05-03T03:44:26.153Z,85.20
2023-05-03T03:46:54.014Z,85.10
2023-05-03T03:49:21.908Z,85.00
2023-05-03T03:51:49.812Z,84.90
2023-05-03T03:54:17.717Z,85.00
2023-05-03T03:56:45.696Z,85.40
2023-05-03T03:59:14.934Z,85.30
2023-05-03T04:01:42.829Z,85.40
2023-05-03T04:04:10.801Z,85.20
2023-05-03T04:06:38.758Z,85.30
2023-05-03T04:09:06.779Z,85.30
2023-05-03T04:11:34.912Z,85.30
2023-05-03T04:14:04.490Z,85.30
2023-05-03T04:16:33.918Z,85.60
2023-05-03T04:19:02.475Z,85.80
2023-05-03T04:21:30.350Z,85.70
2023-05-03T04:23:58.511Z,85.90
2023-05-03T04:26:31.653Z,85.70
2023-05-03T04:29:00.411Z,85.70
2023-05-03T04:31:28.637Z,85.90
2023-05-03T04:33:58.995Z,85.80
2023-05-03T04:36:29.719Z,85.90
2023-05-03T04:38:57.651Z,85.80
2023-05-03T04:41:25.637Z,85.80
2023-05-03T04:43:54.276Z,85.90
2023-05-03T04:46:22.175Z,85.90
2023-05-03T04:48:50.108Z,86.00
2023-05-03T04:51:19.387Z,85.90
2023-05-03T04:53:47.592Z,86.10
2023-05-03T04:56:15.610Z,86.20
2023-05-03T04:58:44.446Z,86.20
2023-05-03T05:01:12.546Z,86.30
2023-05-03T05:03:40.549Z,86.20
2023-05-03T05:06:09.873Z,86.20
2023-05-03T05:08:39.294Z,86.50
2023-05-03T05:11:08.020Z,86.80
2023-05-03T05:13:36.192Z,86.90
2023-05-03T05:16:04.129Z,86.70
2023-05-03T05:18:32.422Z,86.80
2023-05-03T05:21:00.377Z,86.80
2023-05-03T05:23:29.196Z,86.60
2023-05-03T05:26:00.459Z,86.80
2023-05-03T05:28:28.830Z,86.50
2023-05-03T05:30:56.816Z,86.40
2023-05-03T05:33:25.136Z,85.60
2023-05-03T05:35:53.102Z,84.70
2023-05-03T05:38:21.126Z,84.50
2023-05-03T05:40:49.005Z,83.80
2023-05-03T05:43:18.717Z,81.30
2023-05-03T05:45:46.645Z,80.70
2023-05-03T05:48:15.492Z,80.40
2023-05-03T05:50:43.439Z,79.90
2023-05-03T05:53:11.340Z,81.20
2023-05-03T05:55:39.270Z,79.80
2023-05-03T05:58:07.183Z,80.40
2023-05-03T06:00:36.660Z,78.20
2023-05-03T06:03:04.685Z,77.90
2023-05-03T06:05:32.699Z,77.80
2023-05-03T06:08:00.734Z,77.30
2023-05-03T06:10:28.666Z,75.30
2023-05-03T06:12:56.577Z,75.10
2023-05-03T06:15:24.482Z,75.10
2023-05-03T06:17:53.926Z,73.40
2023-05-03T06:20:24.098Z,73.40
2023-05-03T06:22:52.419Z,71.80
2023-05-03T06:25:20.402Z,72.00
2023-05-03T06:27:48.286Z,69.90
2023-05-03T06:30:16.747Z,71.60
2023-05-03T06:32:44.659Z,68.30
2023-05-03T06:35:14.021Z,70.70
2023-05-03T06:37:43.531Z,68.80
2023-05-03T06:40:11.905Z,68.40
2023-05-03T06:42:39.808Z,66.90
2023-05-03T06:45:08.634Z,66.60
2023-05-03T06:47:37.155Z,66.80
2023-05-03T06:50:05.969Z,64.00
2023-05-03T06:52:35.427Z,64.90
2023-05-03T06:55:04.681Z,64.30
2023-05-03T06:57:32.617Z,65.40
2023-05-03T07:00:00.709Z,65.00
2023-05-03T07:02:28.894Z,62.30
2023-05-03T07:04:57.033Z,65.20
2023-05-03T07:07:25.019Z,62.90
2023-05-03T07:09:54.263Z,61.70
2023-05-03T07:12:27.465Z,60.00
2023-05-03T07:14:56.002Z,60.80
2023-05-03T07:17:24.724Z,60.80
2023-05-03T07:19:53.148Z,59.90
2023-05-03T07:22:24.588Z,59.20
2023-05-03T07:24:54.963Z,58.90
2023-05-03T07:27:23.012Z,57.20
2023-05-03T07:29:50.906Z,56.80
2023-05-03T07:32:18.903Z,55.30
2023-05-03T07:34:46.865Z,57.50
2023-05-03T07:37:14.875Z,57.00
2023-05-03T07:39:43.243Z,54.70
2023-05-03T07:42:12.536Z,53.50
2023-05-03T07:44:41.101Z,54.50
2023-05-03T07:47:09.000Z,54.30
2023-05-03T07:49:38.684Z,56.70
2023-05-03T07:52:06.629Z,60.50
2023-05-03T07:54:34.533Z,56.10
2023-05-03T07:57:03.714Z,55.10
2023-05-03T07:59:32.996Z,56.10
2023-05-03T08:02:01.867Z,53.90
2023-05-03T08:04:30.098Z,56.50
2023-05-03T08:07:00.940Z,53.20
2023-05-03T08:09:29.245Z,53.50
2023-05-03T08:11:57.460Z,54.10
2023-05-03T08:14:25.704Z,53.60
2023-05-03T08:16:55.056Z,53.00
2023-05-03T08:19:23.063Z,53.90
2023-05-03T08:21:52.281Z,52.10
2023-05-03T08:24:20.915Z,55.20
2023-05-03T08:26:49.299Z,53.20
2023-05-03T08:29:17.511Z,54.30
2023-05-03T08:31:45.609Z,51.60
2023-05-03T08:34:15.651Z,53.00
2023-05-03T08:36:44.664Z,52.40
2023-05-03T08:39:15.224Z,52.00
2023-05-03T08:41:43.509Z,50.50
2023-05-03T08:44:14.364Z,51.90
2023-05-03T08:46:44.832Z,52.10
2023-05-03T08:49:14.747Z,51.30
2023-05-03T08:51:44.100Z,50.80
2023-05-03T08:54:12.112Z,51.90
2023-05-03T08:56:42.159Z,54.40
2023-05-03T08:59:11.534Z,52.60
2023-05-03T09:01:40.908Z,53.70
2023-05-03T09:04:10.007Z,53.00
2023-05-03T09:06:39.651Z,51.90
2023-05-03T09:09:10.314Z,51.10
2023-05-03T09:11:39.995Z,50.90
2023-05-03T09:14:11.945Z,51.20
2023-05-03T09:16:40.988Z,50.70
2023-05-03T09:19:11.699Z,50.70
2023-05-03T09:21:43.095Z,48.60
2023-05-03T09:24:15.950Z,48.60
2023-05-03T09:26:45.502Z,50.50
2023-05-03T09:29:29.660Z,52.10
2023-05-03T09:32:02.742Z,51.20
2023-05-03T09:34:31.791Z,48.00
2023-05-03T09:37:01.400Z,47.70
2023-05-03T09:39:29.441Z,49.00
2023-05-03T09:41:57.818Z,50.60
2023-05-03T09:44:42.811Z,48.80
2023-05-03T09:47:11.541Z,49.10
2023-05-03T09:49:40.155Z,47.70
2023-05-03T09:52:10.289Z,49.00
2023-05-03T09:54:39.013Z,49.40
2023-05-03T09:57:08.530Z,50.20
2023-05-03T09:59:38.756Z,51.40
2023-05-03T10:02:09.175Z,52.30
2023-05-03T10:04:43.421Z,50.80
2023-05-03T10:07:15.800Z,47.40
2023-05-03T10:09:45.969Z,50.90
2023-05-03T10:12:17.462Z,49.10
2023-05-03T10:14:47.823Z,46.70
2023-05-03T10:17:29.259Z,48.70
2023-05-03T10:20:18.660Z,45.40
2023-05-03T10:23:10.030Z,48.80
2023-05-03T10:25:39.181Z,47.60
2023-05-03T10:28:08.217Z,47.90
2023-05-03T10:30:37.890Z,45.30
2023-05-03T10:33:31.763Z,45.60
2023-05-03T10:36:01.386Z,46.60
2023-05-03T10:38:32.583Z,50.30
2023-05-03T10:41:03.385Z,45.90
2023-05-03T10:43:44.671Z,50.90
2023-05-03T10:46:31.288Z,46.70
2023-05-03T10:49:19.256Z,46.50
2023-05-03T10:51:47.301Z,45.90
2023-05-03T10:54:17.673Z,46.60
2023-05-03T10:56:57.068Z,46.10
2023-05-03T10:59:25.861Z,44.70
2023-05-03T11:01:54.534Z,44.60
2023-05-03T11:04:36.295Z,46.50
2023-05-03T11:07:04.595Z,46.90
2023-05-03T11:09:35.211Z,49.80
2023-05-03T11:12:08.490Z,46.70
2023-05-03T11:14:36.671Z,44.90
2023-05-03T11:17:04.793Z,46.20
2023-05-03T11:19:33.610Z,46.10
2023-05-03T11:22:02.714Z,45.10
2023-05-03T11:24:31.082Z,46.90
2023-05-03T11:27:08.422Z,48.50
2023-05-03T11:29:37.879Z,45.90
2023-05-03T11:32:09.179Z,43.90
2023-05-03T11:34:37.249Z,48.20
2023-05-03T11:37:05.288Z,47.10
2023-05-03T11:39:34.173Z,45.40
2023-05-03T11:42:04.842Z,42.70
2023-05-03T11:44:33.058Z,43.80
2023-05-03T11:47:02.015Z,43.80
2023-05-03T11:49:30.393Z,43.80
2023-05-03T11:51:58.576Z,43.60
2023-05-03T11:54:27.982Z,44.60
2023-05-03T11:57:00.696Z,45.30
2023-05-03T11:59:40.821Z,44.20
2023-05-03T12:02:11.346Z,42.70
2023-05-03T12:04:43.296Z,42.70
2023-05-03T12:07:14.557Z,42.40
2023-05-03T12:09:47.915Z,45.20
2023-05-03T12:12:27.476Z,40.80
2023-05-03T12:15:03.580Z,41.70
2023-05-03T12:17:38.342Z,43.30
2023-05-03T12:22:51.670Z,42.50
2023-05-03T12:25:21.756Z,41.70
2023-05-03T12:28:12.874Z,39.20
2023-05-03T12:30:45.903Z,41.10
2023-05-03T12:33:16.063Z,42.70
2023-05-03T12:35:47.292Z,41.50
2023-05-03T12:38:17.335Z,41.90
2023-05-03T12:40:46.776Z,41.30
2023-05-03T12:43:14.813Z,41.60
2023-05-03T12:45:48.877Z,40.30
2023-05-03T12:48:20.838Z,41.10
2023-05-03T12:50:51.908Z,44.10
2023-05-03T12:53:20.217Z,43.00
2023-05-03T12:55:51.236Z,41.10
2023-05-03T13:01:36.986Z,41.10
2023-05-03T13:03:44.013Z,40.90
2023-05-03T13:06:14.848Z,40.50
2023-05-03T13:11:14.301Z,42.80
2023-05-03T13:13:42.806Z,43.20
2023-05-03T13:16:12.093Z,41.40
2023-05-03T13:18:39.977Z,39.90
2023-05-03T13:21:08.213Z,40.50
2023-05-03T13:23:36.248Z,43.20
2023-05-03T13:26:04.184Z,40.70
2023-05-03T13:28:32.070Z,41.30
2023-05-03T13:30:59.965Z,39.90
2023-05-03T13:33:29.685Z,41.80
2023-05-03T13:35:57.659Z,40.20
2023-05-03T13:38:25.545Z,40.90
2023-05-03T13:40:53.431Z,42.60
2023-05-03T13:43:21.297Z,43.70
2023-05-03T13:45:49.565Z,40.60
2023-05-03T13:48:18.449Z,42.50
2023-05-03T13:50:48.486Z,40.00
2023-05-03T13:53:16.502Z,41.60
2023-05-03T13:55:44.363Z,40.10
2023-05-03T13:58:12.184Z,40.00
2023-05-03T14:00:40.503Z,39.80
2023-05-03T14:03:08.686Z,40.00
2023-05-03T14:05:36.821Z,41.70
2023-05-03T14:08:06.484Z,40.40
2023-05-03T14:10:36.474Z,40.00
2023-05-03T14:13:04.411Z,41.70
2023-05-03T14:15:32.545Z,39.50
2023-05-03T14:18:03.124Z,41.00
2023-05-03T14:20:36.309Z,39.50
2023-05-03T14:23:06.040Z,39.20
2023-05-03T14:25:33.902Z,39.40
2023-05-03T14:28:02.075Z,40.40
2023-05-03T14:30:31.626Z,40.50
2023-05-03T14:32:59.516Z,42.70
2023-05-03T14:35:27.496Z,41.70
2023-05-03T14:37:55.455Z,44.20
2023-05-03T14:40:24.781Z,40.40
2023-05-03T14:42:52.718Z,40.10
2023-05-03T14:45:20.678Z,45.20
2023-05-03T14:47:48.566Z,40.70
2023-05-03T14:50:16.838Z,40.80
2023-05-03T14:52:44.712Z,42.30
2023-05-03T14:55:12.695Z,43.80
2023-05-03T14:57:42.044Z,42.60
2023-05-03T15:00:14.239Z,42.10
2023-05-03T15:02:42.430Z,45.10
2023-05-03T15:05:11.211Z,40.80
2023-05-03T15:07:39.104Z,43.30
2023-05-03T15:10:08.522Z,45.70
2023-05-03T15:12:36.638Z,41.40
2023-05-03T15:15:07.275Z,43.30
2023-05-03T15:17:35.119Z,40.10
2023-05-03T15:20:04.104Z,40.50
2023-05-03T15:22:32.206Z,41.90
2023-05-03T15:25:00.344Z,44.00
2023-05-03T15:27:28.240Z,42.20
2023-05-03T15:29:56.097Z,41.80
2023-05-03T15:32:25.809Z,42.10
2023-05-03T15:34:53.669Z,42.60
2023-05-03T15:37:21.574Z,42.00
2023-05-03T15:39:49.469Z,42.40
2023-05-03T15:42:17.342Z,42.00
2023-05-03T15:44:46.954Z,41.70
2023-05-03T15:47:14.823Z,38.00
2023-05-03T15:49:44.062Z,39.60
2023-05-03T15:52:12.909Z,37.80
2023-05-03T15:54:41.257Z,36.40
2023-05-03T15:57:09.133Z,35.50
2023-05-03T15:59:37.155Z,35.90
2023-05-03T16:02:05.323Z,36.70
2023-05-03T16:04:33.146Z,36.30
2023-05-03T16:07:02.245Z,34.80
2023-05-03T16:09:30.693Z,35.50
2023-05-03T16:11:59.026Z,36.30
2023-05-03T16:14:26.835Z,34.20
2023-05-03T16:16:55.025Z,33.30
2023-05-03T16:19:22.778Z,35.40
2023-05-03T16:21:50.549Z,35.50
2023-05-03T16:24:19.603Z,34.30
2023-05-03T16:26:47.267Z,35.00
2023-05-03T16:29:14.980Z,35.50
2023-05-03T16:31:43.301Z,35.20
2023-05-03T16:34:11.137Z,36.70
2023-05-03T16:36:42.630Z,34.70
2023-05-03T16:39:11.443Z,35.70
2023-05-03T16:41:41.224Z,37.30
2023-05-03T16:44:09.564Z,37.10
2023-05-03T16:46:39.114Z,36.70
2023-05-03T16:49:07.349Z,36.70
2023-05-03T16:51:35.349Z,33.50
2023-05-03T16:54:04.540Z,35.50
2023-05-03T16:56:32.679Z,36.00
2023-05-03T16:59:02.847Z,36.50
2023-05-03T17:01:30.802Z,37.90
2023-05-03T17:03:58.685Z,37.30
2023-05-03T17:06:27.276Z,37.90
2023-05-03T17:08:55.282Z,36.90
2023-05-03T17:11:23.401Z,34.90
2023-05-03T17:13:51.277Z,35.20
2023-05-03T17:16:22.732Z,35.70
2023-05-03T17:18:50.884Z,35.60
2023-05-03T17:21:19.446Z,35.10
2023-05-03T17:23:47.552Z,35.10
2023-05-03T17:26:15.418Z,35.50
2023-05-03T17:28:44.960Z,35.60
2023-05-03T17:31:13.120Z,35.40
2023-05-03T17:33:42.413Z,35.90
2023-05-03T17:36:10.348Z,36.10
2023-05-03T17:38:38.464Z,36.00
2023-05-03T17:41:07.775Z,37.10
2023-05-03T17:43:36.225Z,37.00
2023-05-03T17:46:10.606Z,36.50
2023-05-03T17:48:40.274Z,36.90
2023-05-03T17:51:11.988Z,37.00
2023-05-03T17:53:40.026Z,38.00
2023-05-03T17:56:14.307Z,38.20
2023-05-03T17:58:42.400Z,39.00
2023-05-03T18:01:11.037Z,40.50
2023-05-03T18:03:39.253Z,41.50
2023-05-03T18:06:13.098Z,42.30
2023-05-03T18:08:41.279Z,41.40
2023-05-03T18:11:09.419Z,42.60
2023-05-03T18:13:37.621Z,44.20
2023-05-03T18:16:08.076Z,45.20
2023-05-03T18:18:36.035Z,45.00
2023-05-03T18:21:06.164Z,45.40
2023-05-03T18:23:36.317Z,46.90
2023-05-03T18:26:05.128Z,46.40
2023-05-03T18:28:32.981Z,47.40
2023-05-03T18:31:00.841Z,46.70
2023-05-03T18:33:28.691Z,49.40
2023-05-03T18:35:56.573Z,47.80
2023-05-03T18:38:24.680Z,49.10
2023-05-03T18:40:55.384Z,49.10
2023-05-03T18:43:23.407Z,48.50
2023-05-03T18:45:51.341Z,50.20
2023-05-03T18:48:19.508Z,49.60
2023-05-03T18:50:47.556Z,49.70
2023-05-03T18:53:15.438Z,49.40
2023-05-03T18:55:43.822Z,51.00
2023-05-03T18:58:13.564Z,51.10
2023-05-03T19:00:41.518Z,50.70
2023-05-03T19:03:09.799Z,51.00
2023-05-03T19:05:37.687Z,51.30
2023-05-03T19:08:05.809Z,52.90
2023-05-03T19:10:34.026Z,57.00
2023-05-03T19:13:03.025Z,57.50
2023-05-03T19:15:32.598Z,61.00
2023-05-03T19:18:00.452Z,60.80
2023-05-03T19:20:28.818Z,62.30
2023-05-03T19:22:56.879Z,62.10
2023-05-03T19:25:25.710Z,61.20
2023-05-03T19:27:53.790Z,63.60
2023-05-03T19:30:22.100Z,63.80
2023-05-03T19:32:51.924Z,65.90
2023-05-03T19:35:19.926Z,66.80
2023-05-03T19:37:48.260Z,66.00
2023-05-03T19:40:16.339Z,65.70
2023-05-03T19:42:44.403Z,66.90
2023-05-03T19:45:13.166Z,65.80
2023-05-03T19:47:41.333Z,67.20
2023-05-03T19:50:11.118Z,68.10
2023-05-03T19:52:39.212Z,68.60
2023-05-03T19:55:08.543Z,67.80
2023-05-03T19:57:37.041Z,68.10
2023-05-03T20:00:07.101Z,68.80
2023-05-03T20:02:36.852Z,69.80
2023-05-03T20:05:05.764Z,70.10
2023-05-03T20:07:35.504Z,71.00
2023-05-03T20:10:03.721Z,71.00
2023-05-03T20:12:32.897Z,71.50
2023-05-03T20:15:00.854Z,68.80
2023-05-03T20:17:29.066Z,69.80
2023-05-03T20:19:56.904Z,70.40
2023-05-03T20:22:24.774Z,71.20
2023-05-03T20:24:54.149Z,69.80
2023-05-03T20:27:22.518Z,70.70
2023-05-03T20:29:50.374Z,70.40
2023-05-03T20:32:18.482Z,72.50
2023-05-03T20:34:46.823Z,69.90
2023-05-03T20:37:14.734Z,69.80
2023-05-03T20:39:42.625Z,71.70
2023-05-03T20:42:11.781Z,72.20
2023-05-03T20:44:40.244Z,72.20
2023-05-03T20:47:09.648Z,71.60
2023-05-03T20:49:40.116Z,72.80
2023-05-03T20:52:08.220Z,73.40
2023-05-03T20:54:36.997Z,73.90
2023-05-03T20:57:05.457Z,74.20
2023-05-03T20:59:34.980Z,74.50
2023-05-03T21:02:02.977Z,75.10
2023-05-03T21:04:31.168Z,75.00
2023-05-03T21:06:59.045Z,73.60
2023-05-03T21:09:26.943Z,74.70
2023-05-03T21:11:55.206Z,74.40
2023-05-03T21:14:23.211Z,73.60
2023-05-03T21:16:53.651Z,74.80
2023-05-03T21:19:21.849Z,74.10
2023-05-03T21:21:49.914Z,74.80
2023-05-03T21:24:17.936Z,74.60
2023-05-03T21:26:45.855Z,74.40
2023-05-03T21:29:13.722Z,74.30
2023-05-03T21:31:41.972Z,71.40
2023-05-03T21:34:11.285Z,71.40
2023-05-03T21:36:40.747Z,72.50
2023-05-03T21:39:08.642Z,72.20
2023-05-03T21:41:36.815Z,71.30
2023-05-03T21:44:04.821Z,71.60
2023-05-03T21:46:33.356Z,71.50
2023-05-03T21:49:01.289Z,72.00
2023-05-03T21:51:32.745Z,71.30
2023-05-03T21:54:00.765Z,71.50
2023-05-03T21:56:28.657Z,71.70
2023-05-03T21:58:57.069Z,71.90
2023-05-03T22:01:25.138Z,72.40
2023-05-03T22:03:53.530Z,72.50
2023-05-03T22:06:21.837Z,72.60
2023-05-03T22:08:51.433Z,72.70
2023-05-03T22:11:19.453Z,74.00
2023-05-03T22:14:03.128Z,73.30
2023-05-03T22:16:34.559Z,73.50
2023-05-03T22:19:02.534Z,73.90
2023-05-03T22:21:31.804Z,74.20
2023-05-03T22:24:01.335Z,74.80
2023-05-03T22:26:29.929Z,74.30
2023-05-03T22:28:58.102Z,74.80
2023-05-03T22:31:26.926Z,75.00
2023-05-03T22:33:55.076Z,75.10
2023-05-03T22:36:23.116Z,74.80
2023-05-03T22:38:54.984Z,75.30
2023-05-03T22:41:24.951Z,74.80
2023-05-03T22:43:52.989Z,74.90
2023-05-03T22:46:21.011Z,75.40
2023-05-03T22:48:49.476Z,75.80
2023-05-03T22:51:17.526Z,76.10
2023-05-03T22:53:45.431Z,76.40
2023-05-03T22:56:13.430Z,76.50
2023-05-03T22:58:42.950Z,76.50
2023-05-03T23:01:11.737Z,76.60
2023-05-03T23:03:40.118Z,76.70
2023-05-03T23:06:08.629Z,76.90
2023-05-03T23:08:36.548Z,76.70
2023-05-03T23:11:04.566Z,77.10
2023-05-03T23:13:32.651Z,77.10
2023-05-03T23:16:03.199Z,77.50
2023-05-03T23:18:31.834Z,77.50
2023-05-03T23:20:59.934Z,77.50
2023-05-03T23:23:27.839Z,77.50
2023-05-03T23:25:56.162Z,77.60
2023-05-03T23:28:24.379Z,78.10
2023-05-03T23:30:52.932Z,78.10
2023-05-03T23:33:23.040Z,78.20
2023-05-03T23:35:51.669Z,77.80
2023-05-03T23:38:19.627Z,77.80
2023-05-03T23:40:47.794Z,78.00
2023-05-03T23:43:16.062Z,78.20
2023-05-03T23:45:44.092Z,78.30
2023-05-03T23:48:12.166Z,78.40
2023-05-03T23:50:41.650Z,78.70
2023-05-03T23:53:09.703Z,78.50
2023-05-03T23:55:37.520Z,78.80
2023-05-03T23:58:05.585Z,78.70
